• Join FlightAware (Why Join?)
  • Login
  • US Flag 
07:26AM EDT


 

Airport Tracker/Info


-or-


 

Live Flight TrackerFlight Track Log ✈ N2352Y ✈ 14-May-2013 ✈ KBTR - KBFM

Flight Track Log - Related Links

Times and Time Zones

All times are in EDT time to prevent confusion due to time zone crossing. See the N2352Y flight status page for this flight to view local times or setup timezone preferences in your user account.

Time Position Orientation Groundspeed Altitude Reporting Facility
EDT Latitude Longitude Course Direction KTS MPH feet Rate Location/Type
06:17PM 30.6414 -91.3233 305° West 152 175 5,300  Level Houston Center
06:18PM 30.5471 -90.8041 90° East  Level Estimated
06:18PM 30.6825 -91.3108 15° North 184 212 6,300  Level Houston Center
06:19PM 30.5493 -90.7465 90° East  Level Estimated
06:19PM 30.6864 -91.2622 85° East 159 183 7,400  Level Houston Center
06:20PM 30.5516 -90.6889 77° East  Level Estimated
06:20PM 30.6869 -91.2122 89° East 154 177 8,400  Level Houston Center
06:21PM 30.5538 -90.6312 88° East  Level Estimated
06:21PM 30.6892 -91.1586 87° East 166 191 9,000  Level Houston Center
06:22PM 30.6889 -91.0964 90° East 189 217 9,000  Level Houston Center
06:23PM 30.6911 -91.0158 88° East 203 234 9,000  Level Houston Center
06:24PM 30.6911 -90.9492 90° East 206 237 9,000  Level Houston Center
06:25PM 30.6917 -90.8825 89° East 206 237 9,000  Level Houston Center
06:26PM 30.6908 -90.8172 91° East 205 236 9,000  Level Houston Center
06:27PM 30.6892 -90.7511 92° East 204 235 9,000  Level Houston Center
06:28PM 30.6875 -90.6850 92° East 206 237 9,000  Level Houston Center
06:29PM 30.6875 -90.6053 90° East 204 235 9,000  Level Houston Center
06:30PM 30.6856 -90.5386 92° East 206 237 9,000  Level Houston Center
06:31PM 30.6869 -90.4717 89° East 208 239 9,000  Level Houston Center
06:32PM 30.6861 -90.4050 91° East 207 238 9,000  Level Houston Center
06:33PM 30.6847 -90.3378 91° East 207 238 9,000  Level Houston Center
06:34PM 30.6839 -90.2714 91° East 207 238 9,000  Level Houston Center
06:35PM 30.6822 -90.1906 91° East 208 239 9,000  Level Houston Center
06:36PM 30.6822 -90.1236 90° East 208 239 9,000  Level Houston Center
06:37PM 30.6811 -90.0564 91° East 208 239 9,000  Level Houston Center
06:38PM 30.6803 -89.9886 91° East 209 241 9,000  Level Houston Center
06:39PM 30.6800 -89.9211 90° East 208 239 9,000  Level Houston Center
06:41PM 30.6775 -89.8536 92° East 208 239 9,000  Level Houston Center
06:42PM 30.6764 -89.7861 91° East 209 241 9,000  Level Houston Center
06:43PM 30.6750 -89.7053 91° East 208 239 9,000  Level Houston Center
06:44PM 30.6744 -89.6375 91° East 209 241 9,000  Level Houston Center
06:45PM 30.6739 -89.5706 91° East 208 239 9,000  Level Houston Center
06:46PM 30.6722 -89.5039 92° East 207 238 9,000  Level Houston Center
06:47PM 30.6714 -89.4386 91° East 204 235 9,000  Level Houston Center
06:48PM 30.6694 -89.3731 92° East 203 234 9,000  Level Houston Center
06:49PM 30.6675 -89.3069 92° East 204 235 9,000  Level Houston Center
06:50PM 30.6644 -89.2264 93° East 208 239 9,000  Level Houston Center
06:51PM 30.6642 -89.1619 90° East 203 234 9,000  Level Houston Center
06:52PM 30.6628 -89.0958 91° East 204 235 9,000  Level Houston Center
06:53PM 30.6614 -89.0283 91° East 207 238 9,000  Level Houston Center
06:54PM 30.6586 -88.9639 93° East 201 231 9,000  Level Houston Center
06:55PM 30.6564 -88.8942 92° East 202 232 9,000  Level Houston Center
06:56PM 30.6556 -88.8283 91° East 203 234 9,000  Level Houston Center
06:57PM 30.6533 -88.7633 92° East 203 234 9,000  Level Houston Center
06:58PM 30.6525 -88.6856 91° East 202 232 9,000 -120 Level Houston Center
06:59PM 30.6519 -88.6200 91° East 203 234 8,800 -480 Descending Houston Center
07:00PM 30.6481 -88.5544 94° East 204 235 8,100 -720 Descending Houston Center
07:01PM 30.6450 -88.4875 93° East 208 239 7,400 -780 Descending Houston Center
07:02PM 30.6408 -88.4228 94° East 204 235 6,600 -1,020 Descending Houston Center
07:03PM 30.6367 -88.3436 93° East 205 236 5,400 -1,020 Descending Houston Center
07:04PM 30.6544 -88.2900 69° East 189 217 4,600 -840 Descending Houston Center
07:05PM 30.6911 -88.2461 46° Northeast 187 215 3,700 -780 Descending Houston Center
07:06PM 30.7231 -88.1983 52° Northeast 188 216 3,000 -720 Descending Houston Center
07:07PM 30.7347 -88.1408 77° East 185 213 2,300 -540 Descending Houston Center
07:08PM 30.7239 -88.0783 101° East 170 196 1,900 -600 Descending Houston Center
07:09PM 30.6925 -88.0644 159° South 141 162 1,100 -660 Descending Houston Center
07:11PM 30.6653 -88.0639 179° South 115 132 600 -480 Descending Houston Center
07:12PM 30.6372 -88.0633 179° South 103 119 200 -420 Descending Houston Center
07:14PM 30.6268 -88.0681 192° South  Level Estimated